CEH8 weather

Évasion Hélicoptère Heliport
Montréal/Laval, Quebec, Canada

Public forecast

Using degrees Celsius for public forecast. Weather courtesy of forecast.io.

METAR (pilot weather report)

Closest report is Montreal / Pierre Elliott Trudeau International Airport, 11.0 nm (20.4 km) SSW. Retrieved 2019/09/21 08:00 UTC (3 minutes ago):

CYUL 210800Z 24004KT 15SM FEW090 15/13 A3016 RMK AC1 AC TR SLP216

TAF (pilot weather forecast)

Closest forecast is Montreal / Pierre Elliott Trudeau International Airport, 11.0 nm (20.4 km) SSW. Retrieved 2019/09/21 09:42 UTC (0 seconds ago):

TAF CYUL 210838Z 2109/2206 24005KT P6SM SCT040 BECMG 2113/2115 21010KT FM211800 21010KT P6SM SKC BECMG 2122/2124 18005KT RMK NXT FCST BY 211200Z